createdAt,value
2023-06-03T00:00:27.794Z,18.32
2023-06-03T00:03:14.860Z,18.39
2023-06-03T00:05:42.761Z,18.35
2023-06-03T00:08:09.598Z,18.27
2023-06-03T00:10:36.662Z,18.30
2023-06-03T00:13:03.433Z,18.23
2023-06-03T00:15:30.568Z,18.17
2023-06-03T00:17:57.471Z,18.17
2023-06-03T00:20:26.398Z,18.17
2023-06-03T00:22:53.390Z,18.02
2023-06-03T00:25:20.616Z,17.85
2023-06-03T00:27:50.395Z,17.73
2023-06-03T00:30:17.745Z,17.77
2023-06-03T00:32:44.716Z,17.84
2023-06-03T00:35:11.769Z,17.76
2023-06-03T00:37:38.554Z,17.78
2023-06-03T00:40:06.317Z,17.71
2023-06-03T00:42:33.369Z,17.63
2023-06-03T00:45:00.736Z,17.68
2023-06-03T00:47:27.556Z,17.62
2023-06-03T00:49:54.704Z,17.56
2023-06-03T00:52:21.576Z,17.49
2023-06-03T00:54:50.315Z,17.43
2023-06-03T00:57:17.432Z,17.50
2023-06-03T00:59:44.494Z,17.40
2023-06-03T01:02:13.830Z,17.42
2023-06-03T01:04:43.471Z,17.31
2023-06-03T01:07:14.254Z,17.31
2023-06-03T01:10:03.660Z,17.28
2023-06-03T01:12:58.328Z,17.27
2023-06-03T01:15:29.245Z,17.27
2023-06-03T01:17:58.691Z,17.23
2023-06-03T01:20:29.529Z,17.17
2023-06-03T01:23:12.379Z,17.18
2023-06-03T01:25:42.848Z,17.24
2023-06-03T01:28:09.971Z,17.08
2023-06-03T01:30:37.095Z,17.03
2023-06-03T01:33:03.980Z,17.04
2023-06-03T01:35:31.323Z,17.01
2023-06-03T01:37:58.078Z,17.06
2023-06-03T01:40:25.229Z,16.93
2023-06-03T01:42:52.024Z,16.96
2023-06-03T01:45:19.097Z,16.84
2023-06-03T01:47:45.949Z,17.03
2023-06-03T01:50:13.046Z,16.98
2023-06-03T01:52:39.869Z,16.88
2023-06-03T01:55:07.878Z,16.76
2023-06-03T01:57:34.686Z,16.69
2023-06-03T02:00:02.095Z,16.73
2023-06-03T02:02:29.026Z,16.79
2023-06-03T02:04:57.582Z,16.70
2023-06-03T02:07:27.180Z,16.64
2023-06-03T02:09:54.493Z,16.65
2023-06-03T02:12:21.374Z,16.55
2023-06-03T02:14:48.631Z,16.64
2023-06-03T02:17:16.696Z,16.76
2023-06-03T02:19:43.789Z,16.64
2023-06-03T02:22:12.011Z,16.55
2023-06-03T02:24:39.381Z,16.56
2023-06-03T02:27:07.865Z,16.55
2023-06-03T02:29:35.178Z,16.50
2023-06-03T02:32:02.308Z,16.49
2023-06-03T02:34:29.562Z,16.45
2023-06-03T02:36:56.513Z,16.36
2023-06-03T02:39:23.665Z,16.33
2023-06-03T02:41:50.558Z,16.25
2023-06-03T02:44:17.991Z,16.17
2023-06-03T02:46:45.239Z,16.24
2023-06-03T02:49:13.799Z,16.19
2023-06-03T02:51:43.512Z,16.27
2023-06-03T02:54:10.803Z,16.20
2023-06-03T02:56:37.573Z,16.05
2023-06-03T02:59:04.998Z,16.10
2023-06-03T03:01:32.014Z,16.02
2023-06-03T03:03:59.258Z,16.00
2023-06-03T03:06:26.270Z,15.95
2023-06-03T03:08:56.499Z,15.96
2023-06-03T03:11:25.444Z,15.98
2023-06-03T03:13:52.618Z,15.89
2023-06-03T03:16:19.475Z,15.88
2023-06-03T03:18:46.869Z,15.94
2023-06-03T03:21:14.333Z,15.97
2023-06-03T03:23:41.772Z,15.86
2023-06-03T03:26:09.865Z,15.90
2023-06-03T03:28:37.248Z,15.88
2023-06-03T03:31:06.193Z,15.99
2023-06-03T03:33:33.831Z,15.92
2023-06-03T03:36:09.392Z,15.94
2023-06-03T03:38:37.613Z,15.91
2023-06-03T03:41:06.522Z,16.02
2023-06-03T03:43:34.110Z,16.01
2023-06-03T03:46:01.082Z,16.06
2023-06-03T03:48:29.875Z,16.05
2023-06-03T03:50:56.868Z,16.05
2023-06-03T03:53:30.196Z,16.08
2023-06-03T03:55:58.380Z,16.04
2023-06-03T03:58:29.992Z,16.09
2023-06-03T04:01:02.146Z,16.12
2023-06-03T04:03:31.505Z,16.15
2023-06-03T04:05:58.604Z,16.16
2023-06-03T04:08:47.348Z,16.09
2023-06-03T04:11:21.281Z,16.18
2023-06-03T04:13:48.548Z,16.20
2023-06-03T04:16:35.904Z,16.28
2023-06-03T04:19:04.296Z,16.28
2023-06-03T04:21:31.387Z,16.39
2023-06-03T04:23:58.550Z,16.47
2023-06-03T04:26:25.403Z,16.49
2023-06-03T04:28:53.628Z,16.55
2023-06-03T04:31:20.476Z,16.51
2023-06-03T04:33:47.563Z,16.53
2023-06-03T04:36:14.454Z,16.57
2023-06-03T04:38:42.488Z,16.63
2023-06-03T04:41:11.523Z,16.63
2023-06-03T04:43:39.616Z,16.64
2023-06-03T04:46:11.301Z,16.63
2023-06-03T04:48:42.526Z,16.69
2023-06-03T04:51:10.172Z,16.75
2023-06-03T04:53:40.065Z,16.79
2023-06-03T04:56:09.867Z,16.83
2023-06-03T04:58:38.141Z,16.87
2023-06-03T05:01:06.347Z,16.98
2023-06-03T05:03:36.407Z,17.01
2023-06-03T05:06:05.376Z,17.03
2023-06-03T05:08:32.512Z,17.11
2023-06-03T05:10:59.328Z,17.19
2023-06-03T05:13:26.761Z,17.24
2023-06-03T05:15:53.574Z,17.26
2023-06-03T05:18:20.755Z,17.32
2023-06-03T05:20:47.531Z,17.38
2023-06-03T05:23:14.648Z,17.42
2023-06-03T05:25:41.439Z,17.46
2023-06-03T05:28:08.708Z,17.54
2023-06-03T05:30:35.498Z,17.61
2023-06-03T05:33:02.645Z,17.68
2023-06-03T05:35:29.490Z,17.73
2023-06-03T05:37:56.696Z,17.79
2023-06-03T05:40:23.586Z,17.84
2023-06-03T05:42:50.739Z,17.90
2023-06-03T05:45:17.586Z,17.94
2023-06-03T05:47:44.714Z,18.02
2023-06-03T05:50:11.588Z,18.10
2023-06-03T05:52:38.677Z,18.18
2023-06-03T05:55:06.022Z,18.21
2023-06-03T05:57:34.533Z,18.29
2023-06-03T06:00:01.512Z,18.35
2023-06-03T06:02:28.715Z,18.39
2023-06-03T06:04:55.625Z,18.47
2023-06-03T06:07:22.747Z,18.52
2023-06-03T06:09:49.534Z,18.60
2023-06-03T06:12:18.083Z,18.64
2023-06-03T06:14:44.997Z,18.71
2023-06-03T06:17:13.144Z,18.79
2023-06-03T06:19:40.172Z,18.80
2023-06-03T06:22:07.277Z,18.86
2023-06-03T06:24:36.379Z,18.97
2023-06-03T06:27:05.549Z,19.01
2023-06-03T06:29:32.960Z,19.09
2023-06-03T06:32:01.238Z,19.18
2023-06-03T06:34:32.858Z,19.22
2023-06-03T06:37:00.546Z,19.28
2023-06-03T06:39:48.826Z,19.40
2023-06-03T06:42:32.764Z,19.46
2023-06-03T06:45:05.236Z,19.51
2023-06-03T06:47:37.114Z,19.59
2023-06-03T06:50:06.171Z,19.68
2023-06-03T06:52:33.285Z,19.74
2023-06-03T06:55:00.418Z,19.84
2023-06-03T06:57:29.520Z,19.92
2023-06-03T06:59:56.442Z,20.02
2023-06-03T07:02:23.778Z,20.04
2023-06-03T07:04:53.477Z,20.13
2023-06-03T07:07:20.604Z,20.22
2023-06-03T07:09:47.399Z,20.28
2023-06-03T07:12:14.552Z,20.35
2023-06-03T07:14:41.386Z,20.36
2023-06-03T07:17:08.604Z,20.51
2023-06-03T07:19:38.075Z,20.57
2023-06-03T07:22:08.587Z,20.70
2023-06-03T07:24:36.496Z,20.78
2023-06-03T07:27:07.521Z,20.88
2023-06-03T07:29:39.280Z,20.90
2023-06-03T07:32:07.672Z,20.99
2023-06-03T07:34:34.889Z,21.08
2023-06-03T07:37:02.962Z,21.15
2023-06-03T07:39:29.924Z,21.23
2023-06-03T07:41:57.284Z,21.29
2023-06-03T07:44:45.465Z,21.38
2023-06-03T07:47:14.289Z,21.43
2023-06-03T07:49:41.396Z,21.52
2023-06-03T07:52:08.568Z,21.64
2023-06-03T07:54:36.198Z,21.67
2023-06-03T07:57:03.443Z,21.72
2023-06-03T07:59:30.276Z,21.78
2023-06-03T08:02:00.744Z,21.93
2023-06-03T08:04:32.585Z,21.99
2023-06-03T08:07:01.663Z,22.03
2023-06-03T08:09:33.839Z,22.13
2023-06-03T08:12:02.417Z,22.23
2023-06-03T08:14:30.996Z,22.31
2023-06-03T08:16:59.736Z,22.41
2023-06-03T08:19:26.544Z,22.46
2023-06-03T08:21:53.798Z,22.53
2023-06-03T08:24:20.899Z,22.66
2023-06-03T08:26:48.012Z,22.70
2023-06-03T08:29:15.054Z,22.82
2023-06-03T08:31:42.267Z,22.83
2023-06-03T08:34:09.121Z,22.91
2023-06-03T08:36:38.115Z,22.97
2023-06-03T08:39:06.042Z,23.08
2023-06-03T08:41:38.362Z,23.19
2023-06-03T08:44:11.087Z,23.25
2023-06-03T08:46:45.060Z,23.27
2023-06-03T08:49:12.668Z,23.36
2023-06-03T08:51:40.350Z,23.41
2023-06-03T08:54:12.457Z,23.46
2023-06-03T08:56:41.467Z,23.55
2023-06-03T08:59:08.270Z,23.62
2023-06-03T09:01:38.634Z,23.69
2023-06-03T09:04:05.842Z,23.71
2023-06-03T09:06:33.270Z,23.81
2023-06-03T09:09:00.083Z,23.80
2023-06-03T09:11:27.436Z,23.89
2023-06-03T09:13:54.496Z,23.98
2023-06-03T09:16:21.712Z,24.06
2023-06-03T09:18:50.592Z,24.14
2023-06-03T09:21:17.720Z,24.17
2023-06-03T09:23:45.143Z,24.30
2023-06-03T09:26:12.391Z,24.34
2023-06-03T09:28:39.258Z,24.40
2023-06-03T09:31:06.746Z,24.40
2023-06-03T09:33:33.922Z,24.47
2023-06-03T09:36:17.142Z,24.55
2023-06-03T09:38:57.632Z,24.61
2023-06-03T09:41:28.643Z,24.74
2023-06-03T09:44:01.161Z,24.73
2023-06-03T09:46:30.135Z,24.94
2023-06-03T09:49:32.689Z,24.93
2023-06-03T09:52:10.910Z,25.09
2023-06-03T09:54:38.152Z,25.13
2023-06-03T09:57:12.827Z,25.18
2023-06-03T09:59:42.361Z,25.35
2023-06-03T10:02:11.988Z,25.41
2023-06-03T10:04:43.277Z,25.46
2023-06-03T10:07:14.802Z,25.61
2023-06-03T10:09:46.635Z,25.65
2023-06-03T10:12:28.290Z,25.82
2023-06-03T10:14:56.520Z,25.86
2023-06-03T10:17:23.887Z,26.00
2023-06-03T10:19:50.802Z,25.98
2023-06-03T10:22:19.906Z,26.01
2023-06-03T10:24:47.923Z,26.20
2023-06-03T10:27:19.149Z,26.17
2023-06-03T10:29:46.072Z,26.16
2023-06-03T10:32:16.135Z,26.24
2023-06-03T10:34:46.274Z,26.25
2023-06-03T10:37:14.731Z,26.51
2023-06-03T10:39:42.631Z,26.54
2023-06-03T10:42:11.448Z,26.50
2023-06-03T10:44:38.253Z,26.69
2023-06-03T10:47:14.608Z,26.58
2023-06-03T10:49:55.392Z,26.75
2023-06-03T10:52:28.586Z,26.87
2023-06-03T10:55:10.240Z,26.95
2023-06-03T10:57:46.662Z,27.03
2023-06-03T11:00:13.676Z,27.07
2023-06-03T11:03:09.792Z,27.13
2023-06-03T11:05:36.827Z,27.21
2023-06-03T11:08:03.998Z,27.21
2023-06-03T11:10:40.721Z,27.15
2023-06-03T11:13:08.289Z,27.20
2023-06-03T11:15:57.857Z,27.22
2023-06-03T11:18:25.061Z,27.22
2023-06-03T11:20:51.924Z,27.33
2023-06-03T11:23:41.727Z,27.39
2023-06-03T11:26:34.927Z,27.44
2023-06-03T11:29:06.333Z,27.49
2023-06-03T11:31:34.303Z,27.53
2023-06-03T11:34:28.007Z,27.62
2023-06-03T11:36:56.110Z,27.60
2023-06-03T11:39:23.521Z,27.67
2023-06-03T11:42:10.372Z,27.66
2023-06-03T11:44:41.430Z,27.83
2023-06-03T11:47:08.408Z,27.83
2023-06-03T11:49:36.689Z,27.89
2023-06-03T11:52:03.742Z,27.95
2023-06-03T11:54:30.995Z,27.96
2023-06-03T11:57:00.875Z,27.90
2023-06-03T11:59:33.928Z,27.92
2023-06-03T12:02:01.640Z,28.08
2023-06-03T12:04:29.321Z,28.09
2023-06-03T12:06:56.475Z,28.16
2023-06-03T12:09:25.068Z,28.22
2023-06-03T12:11:51.944Z,28.26
2023-06-03T12:14:28.391Z,28.24
2023-06-03T12:16:56.309Z,28.31
2023-06-03T12:19:23.471Z,28.35
2023-06-03T12:21:58.179Z,28.40
2023-06-03T12:24:29.614Z,28.38
2023-06-03T12:26:56.415Z,28.31
2023-06-03T12:29:24.790Z,28.48
2023-06-03T12:31:59.126Z,28.36
2023-06-03T12:34:34.852Z,28.27
2023-06-03T12:37:06.178Z,28.37
2023-06-03T12:39:47.521Z,28.20
2023-06-03T12:42:14.373Z,28.38
2023-06-03T12:44:51.565Z,28.47
2023-06-03T12:47:19.389Z,28.69
2023-06-03T12:50:08.238Z,28.71
2023-06-03T12:52:37.370Z,28.68
2023-06-03T12:55:06.792Z,28.68
2023-06-03T12:57:54.515Z,28.80
2023-06-03T13:00:22.544Z,28.82
2023-06-03T13:02:51.201Z,28.90
2023-06-03T13:05:18.726Z,28.85
2023-06-03T13:07:45.702Z,28.91
2023-06-03T13:10:13.497Z,28.96
2023-06-03T13:12:41.225Z,28.88
2023-06-03T13:15:08.565Z,28.95
2023-06-03T13:17:36.511Z,28.98
2023-06-03T13:20:07.209Z,28.98
2023-06-03T13:22:35.083Z,29.05
2023-06-03T13:25:02.329Z,29.08
2023-06-03T13:27:29.218Z,29.11
2023-06-03T13:29:56.351Z,29.17
2023-06-03T13:32:24.972Z,29.19
2023-06-03T13:34:52.884Z,29.19
2023-06-03T13:37:19.750Z,29.15
2023-06-03T13:39:46.859Z,29.11
2023-06-03T13:42:13.696Z,29.05
2023-06-03T13:44:40.819Z,29.12
2023-06-03T13:47:08.491Z,29.20
2023-06-03T13:49:35.694Z,29.17
2023-06-03T13:52:02.594Z,29.10
2023-06-03T13:54:29.756Z,29.11
2023-06-03T13:56:56.557Z,29.14
2023-06-03T13:59:24.186Z,29.28
2023-06-03T14:01:52.237Z,29.30
2023-06-03T14:04:21.240Z,29.30
2023-06-03T14:06:49.702Z,29.25
2023-06-03T14:09:17.320Z,29.30
2023-06-03T14:11:44.210Z,29.27
2023-06-03T14:14:11.335Z,29.32
2023-06-03T14:16:38.347Z,29.37
2023-06-03T14:19:05.826Z,29.20
2023-06-03T14:21:32.843Z,29.07
2023-06-03T14:24:00.108Z,29.15
2023-06-03T14:26:27.365Z,29.29
2023-06-03T14:28:54.588Z,29.24
2023-06-03T14:33:52.021Z,29.35
2023-06-03T14:36:18.838Z,29.25
2023-06-03T14:38:45.941Z,29.14
2023-06-03T14:41:12.794Z,29.21
2023-06-03T14:43:39.921Z,29.25
2023-06-03T14:46:06.828Z,29.22
2023-06-03T14:48:34.014Z,29.03
2023-06-03T14:51:01.162Z,29.14
2023-06-03T14:53:29.068Z,29.08
2023-06-03T14:55:56.132Z,29.02
2023-06-03T14:58:24.973Z,29.13
2023-06-03T15:00:51.886Z,29.17
2023-06-03T15:03:21.446Z,29.20
2023-06-03T15:05:48.501Z,29.07
2023-06-03T15:08:15.657Z,29.10
2023-06-03T15:10:42.522Z,29.12
2023-06-03T15:13:09.684Z,28.96
2023-06-03T15:15:36.781Z,28.94
2023-06-03T15:18:04.156Z,28.85
2023-06-03T15:20:31.040Z,28.90
2023-06-03T15:22:58.188Z,28.93
2023-06-03T15:25:24.990Z,28.99
2023-06-03T15:27:52.248Z,28.99
2023-06-03T15:30:20.129Z,28.90
2023-06-03T15:32:48.294Z,28.94
2023-06-03T15:35:15.156Z,28.81
2023-06-03T15:37:42.289Z,28.77
2023-06-03T15:40:09.572Z,28.82
2023-06-03T15:42:36.926Z,28.91
2023-06-03T15:45:05.027Z,28.85
2023-06-03T15:47:32.203Z,28.66
2023-06-03T15:49:59.019Z,28.59
2023-06-03T15:52:26.127Z,28.57
2023-06-03T15:54:52.907Z,28.56
2023-06-03T15:57:20.054Z,28.46
2023-06-03T15:59:46.889Z,28.54
2023-06-03T16:02:14.252Z,28.58
2023-06-03T16:04:41.682Z,28.59
2023-06-03T16:07:08.867Z,28.65
2023-06-03T16:09:35.928Z,28.59
2023-06-03T16:12:03.204Z,28.46
2023-06-03T16:14:30.058Z,28.38
2023-06-03T16:16:57.338Z,28.38
2023-06-03T16:19:24.229Z,28.47
2023-06-03T16:21:51.551Z,28.43
2023-06-03T16:24:18.483Z,28.44
2023-06-03T16:26:45.786Z,28.35
2023-06-03T16:29:12.684Z,28.26
2023-06-03T16:31:40.574Z,28.22
2023-06-03T16:34:08.955Z,28.15
2023-06-03T16:36:37.427Z,28.17
2023-06-03T16:39:04.404Z,28.08
2023-06-03T16:41:31.556Z,27.82
2023-06-03T16:43:58.815Z,27.86
2023-06-03T16:46:29.565Z,27.81
2023-06-03T16:48:56.845Z,27.82
2023-06-03T16:51:23.953Z,27.89
2023-06-03T16:53:50.901Z,27.91
2023-06-03T16:56:18.315Z,27.87
2023-06-03T16:58:45.670Z,27.67
2023-06-03T17:01:13.272Z,27.54
2023-06-03T17:03:43.266Z,27.49
2023-06-03T17:06:10.453Z,27.50
2023-06-03T17:08:37.274Z,27.41
2023-06-03T17:11:04.673Z,27.33
2023-06-03T17:13:31.617Z,27.34
2023-06-03T17:15:58.843Z,27.08
2023-06-03T17:18:26.662Z,27.11
2023-06-03T17:20:53.806Z,27.13
2023-06-03T17:23:21.252Z,27.01
2023-06-03T17:25:48.744Z,26.87
2023-06-03T17:28:16.103Z,26.93
2023-06-03T17:30:43.280Z,26.82
2023-06-03T17:33:10.142Z,26.74
2023-06-03T17:35:37.369Z,26.76
2023-06-03T17:38:04.196Z,26.71
2023-06-03T17:40:31.403Z,26.65
2023-06-03T17:42:58.258Z,26.63
2023-06-03T17:45:26.351Z,26.51
2023-06-03T17:47:53.686Z,26.50
2023-06-03T17:50:21.073Z,26.41
2023-06-03T17:52:51.031Z,26.42
2023-06-03T17:55:18.429Z,26.39
2023-06-03T17:57:49.132Z,26.34
2023-06-03T18:00:17.727Z,26.32
2023-06-03T18:02:44.926Z,26.26
2023-06-03T18:05:12.993Z,26.21
2023-06-03T18:07:40.109Z,26.07
2023-06-03T18:10:07.792Z,26.02
2023-06-03T18:12:34.693Z,25.87
2023-06-03T18:15:01.815Z,25.92
2023-06-03T18:17:28.875Z,25.94
2023-06-03T18:19:56.800Z,25.99
2023-06-03T18:22:24.495Z,26.00
2023-06-03T18:24:51.585Z,25.91
2023-06-03T18:27:18.924Z,25.87
2023-06-03T18:29:46.033Z,25.82
2023-06-03T18:32:13.023Z,25.74
2023-06-03T18:34:44.242Z,25.68
2023-06-03T18:37:13.263Z,25.62
2023-06-03T18:39:40.553Z,25.58
2023-06-03T18:42:08.008Z,25.49
2023-06-03T18:44:35.645Z,25.39
2023-06-03T18:47:04.650Z,25.34
2023-06-03T18:49:31.865Z,25.33
2023-06-03T18:51:58.822Z,25.28
2023-06-03T18:54:26.161Z,25.22
2023-06-03T18:56:52.961Z,25.18
2023-06-03T18:59:20.095Z,25.15
2023-06-03T19:01:47.545Z,25.14
2023-06-03T19:04:15.904Z,25.08
2023-06-03T19:06:43.627Z,24.99
2023-06-03T19:09:12.885Z,24.94
2023-06-03T19:11:40.410Z,24.87
2023-06-03T19:14:13.658Z,24.83
2023-06-03T19:16:44.677Z,24.79
2023-06-03T19:19:12.271Z,24.74
2023-06-03T19:21:39.531Z,24.68
2023-06-03T19:24:07.200Z,24.60
2023-06-03T19:26:34.293Z,24.56
2023-06-03T19:29:01.720Z,24.50
2023-06-03T19:31:29.522Z,24.44
2023-06-03T19:33:58.426Z,24.37
2023-06-03T19:36:26.210Z,24.30
2023-06-03T19:38:53.374Z,24.22
2023-06-03T19:41:20.214Z,24.14
2023-06-03T19:43:47.340Z,24.12
2023-06-03T19:46:14.447Z,24.08
2023-06-03T19:48:41.937Z,24.02
2023-06-03T19:51:08.840Z,23.96
2023-06-03T19:53:36.183Z,23.90
2023-06-03T19:56:03.312Z,23.84
2023-06-03T19:58:30.610Z,23.79
2023-06-03T20:00:57.476Z,23.71
2023-06-03T20:03:27.600Z,23.61
2023-06-03T20:05:54.568Z,23.58
2023-06-03T20:08:21.983Z,23.48
2023-06-03T20:10:48.853Z,23.38
2023-06-03T20:13:25.715Z,23.38
2023-06-03T20:16:00.490Z,23.31
2023-06-03T20:18:27.814Z,23.21
2023-06-03T20:20:54.643Z,23.17
2023-06-03T20:23:21.785Z,23.14
2023-06-03T20:25:49.151Z,23.13
2023-06-03T20:28:16.581Z,23.03
2023-06-03T20:30:43.520Z,22.98
2023-06-03T20:33:10.745Z,22.94
2023-06-03T20:35:37.638Z,22.82
2023-06-03T20:38:04.760Z,22.84
2023-06-03T20:40:31.553Z,22.70
2023-06-03T20:42:58.668Z,22.68
2023-06-03T20:45:25.499Z,22.65
2023-06-03T20:47:55.001Z,22.58
2023-06-03T20:50:23.373Z,22.53
2023-06-03T20:52:50.522Z,22.39
2023-06-03T20:55:17.371Z,22.41
2023-06-03T20:57:44.497Z,22.35
2023-06-03T21:00:11.836Z,22.29
2023-06-03T21:02:39.186Z,22.26
2023-06-03T21:05:06.457Z,22.12
2023-06-03T21:07:33.534Z,22.01
2023-06-03T21:10:00.406Z,21.99
2023-06-03T21:12:27.462Z,21.97
2023-06-03T21:14:54.878Z,21.93
2023-06-03T21:17:22.076Z,21.77
2023-06-03T21:19:48.906Z,21.81
2023-06-03T21:22:18.960Z,21.68
2023-06-03T21:24:46.395Z,21.80
2023-06-03T21:27:14.056Z,21.63
2023-06-03T21:29:40.928Z,21.57
2023-06-03T21:32:08.151Z,21.59
2023-06-03T21:34:35.193Z,21.47
2023-06-03T21:37:02.706Z,21.40
2023-06-03T21:39:29.602Z,21.42
2023-06-03T21:41:57.747Z,21.33
2023-06-03T21:44:24.762Z,21.36
2023-06-03T21:46:51.941Z,21.37
2023-06-03T21:49:18.831Z,21.22
2023-06-03T21:51:46.115Z,21.19
2023-06-03T21:54:12.925Z,21.08
2023-06-03T21:56:40.050Z,21.07
2023-06-03T21:59:09.283Z,21.04
2023-06-03T22:01:36.594Z,21.07
2023-06-03T22:04:03.667Z,20.97
2023-06-03T22:06:31.187Z,20.95
2023-06-03T22:08:58.002Z,20.90
2023-06-03T22:11:25.199Z,20.88
2023-06-03T22:13:51.988Z,20.80
2023-06-03T22:16:19.262Z,20.69
2023-06-03T22:18:46.399Z,20.71
2023-06-03T22:21:13.623Z,20.67
2023-06-03T22:23:40.672Z,20.69
2023-06-03T22:26:07.861Z,20.56
2023-06-03T22:28:34.647Z,20.56
2023-06-03T22:31:01.833Z,20.50
2023-06-03T22:33:28.739Z,20.45
2023-06-03T22:35:56.445Z,20.42
2023-06-03T22:38:23.834Z,20.36
2023-06-03T22:40:51.741Z,20.38
2023-06-03T22:43:19.268Z,20.37
2023-06-03T22:45:46.642Z,20.27
2023-06-03T22:48:14.075Z,20.15
2023-06-03T22:50:41.310Z,20.19
2023-06-03T22:53:08.098Z,20.16
2023-06-03T22:55:35.203Z,20.11
2023-06-03T22:58:02.185Z,20.03
2023-06-03T23:00:29.340Z,20.02
2023-06-03T23:02:56.497Z,20.02
2023-06-03T23:05:24.215Z,19.99
2023-06-03T23:07:51.527Z,19.93
2023-06-03T23:10:18.725Z,19.88
2023-06-03T23:12:46.045Z,19.88
2023-06-03T23:15:13.312Z,19.89
2023-06-03T23:17:40.485Z,19.82
2023-06-03T23:20:28.421Z,19.76
2023-06-03T23:22:55.328Z,19.75
2023-06-03T23:25:22.486Z,19.71
2023-06-03T23:27:49.532Z,19.74
2023-06-03T23:30:16.820Z,19.72
2023-06-03T23:32:44.280Z,19.59
2023-06-03T23:35:11.787Z,19.61
2023-06-03T23:37:40.989Z,19.59
2023-06-03T23:40:09.442Z,19.54
2023-06-03T23:42:36.257Z,19.47
2023-06-03T23:45:04.423Z,19.45
2023-06-03T23:47:31.287Z,19.39
2023-06-03T23:50:00.335Z,19.38
2023-06-03T23:52:27.142Z,19.30
2023-06-03T23:54:55.607Z,19.31
2023-06-03T23:57:22.533Z,19.21
2023-06-03T23:59:49.629Z,19.20
